Time;durP1;ratioP1;P1;durP2;ratioP2;P2;SDS_P1;SDS_P2;PMS_P1;PMS_P2;Temp;Humidity;BMP_temperature;BMP_pressure;BME280_temperature;BME280_humidity;BME280_pressure;Samples;Min_cycle;Max_cycle;Signal;HPM_P1;HPM_P2
2023/03/28 00:02:59;;;;;;;5.30;1.50;;;;;;;0.35;95.45;100142.86;211905;1293;139234;-85
2023/03/28 00:07:59;;;;;;;3.40;1.20;;;;;;;0.31;95.56;100140.27;212321;1294;99269;-84
2023/03/28 00:12:59;;;;;;;2.80;1.40;;;;;;;0.30;96.07;100145.37;213154;1295;139518;-86
2023/03/28 00:18:00;;;;;;;2.20;1.20;;;;;;;0.30;96.36;100136.06;214036;1289;138691;-84
2023/03/28 00:23:02;;;;;;;2.40;1.10;;;;;;;0.28;96.20;100133.90;213602;1289;138904;-85
2023/03/28 00:28:03;;;;;;;4.10;1.10;;;;;;;0.27;96.42;100132.52;214043;1292;138619;-85
2023/03/28 00:33:06;;;;;;;1.60;0.90;;;;;;;0.27;96.80;100131.50;213681;1292;139130;-85
2023/03/28 00:38:06;;;;;;;2.30;0.80;;;;;;;0.26;97.55;100127.85;214257;1292;99141;-86
2023/03/28 00:43:12;;;;;;;2.70;1.00;;;;;;;0.25;97.88;100128.16;213667;1292;139424;-85
2023/03/28 00:48:14;;;;;;;2.00;1.80;;;;;;;0.27;97.83;100130.90;214089;1289;139206;-86
2023/03/28 00:53:22;;;;;;;1.50;0.70;;;;;;;0.27;98.19;100127.55;213469;1289;138512;-85
2023/03/28 00:58:26;;;;;;;2.70;1.10;;;;;;;0.28;98.28;100129.63;214058;1292;139309;-85
2023/03/28 01:03:32;;;;;;;4.00;1.70;;;;;;;0.30;98.53;100133.73;213682;1291;138676;-84
2023/03/28 01:08:37;;;;;;;2.70;1.10;;;;;;;0.32;98.88;100134.12;214066;1293;97868;-84
2023/03/28 01:13:41;;;;;;;2.20;0.60;;;;;;;0.34;99.17;100136.05;213396;1288;138792;-86
2023/03/28 01:18:50;;;;;;;2.40;1.10;;;;;;;0.37;99.18;100140.83;213970;1294;138332;-83
2023/03/28 01:24:09;;;;;;;2.40;1.10;;;;;;;0.39;99.50;100134.02;213503;1291;138826;-83
2023/03/28 01:29:28;;;;;;;3.50;1.40;;;;;;;0.35;99.74;100128.83;213320;1294;138926;-86
2023/03/28 01:34:53;;;;;;;2.10;1.30;;;;;;;0.28;99.33;100126.52;213776;1293;138721;-83
2023/03/28 01:40:29;;;;;;;3.30;1.20;;;;;;;0.20;99.74;100131.39;213342;1289;138631;-82
2023/03/28 01:45:44;;;;;;;4.40;1.70;;;;;;;0.15;99.14;100129.10;213530;1291;139146;-82
2023/03/28 01:51:11;;;;;;;4.40;1.70;;;;;;;0.14;99.40;100133.73;213492;1288;138596;-82
2023/03/28 01:56:36;;;;;;;5.60;2.00;;;;;;;0.13;99.35;100135.55;214047;1289;98646;-82
2023/03/28 02:02:03;;;;;;;6.10;1.90;;;;;;;0.13;99.34;100144.13;213466;1294;140419;-82
2023/03/28 02:07:07;;;;;;;4.10;2.00;;;;;;;0.10;99.51;100143.98;213962;1293;138814;-82
2023/03/28 02:12:19;;;;;;;5.20;2.20;;;;;;;0.09;99.24;100148.83;213454;1294;138508;-82
2023/03/28 02:17:23;;;;;;;5.60;1.90;;;;;;;0.10;99.80;100140.52;214103;1289;138561;-83
2023/03/28 02:22:42;;;;;;;3.80;2.00;;;;;;;0.11;99.77;100137.46;213982;1289;139371;-82
2023/03/28 02:27:44;;;;;;;4.60;1.70;;;;;;;0.11;99.77;100136.64;214306;1293;139605;-82
2023/03/28 02:32:49;;;;;;;6.30;2.30;;;;;;;0.13;99.85;100138.97;213495;1291;139705;-82
2023/03/28 02:38:24;;;;;;;4.10;1.80;;;;;;;0.16;99.92;100136.87;213926;1294;138373;-82
2023/03/28 02:44:02;;;;;;;3.80;2.00;;;;;;;0.16;99.77;100142.06;215316;1289;138958;-82
2023/03/28 02:49:18;;;;;;;4.10;2.20;;;;;;;0.13;99.94;100147.62;213446;1291;139234;-82
2023/03/28 02:54:29;;;;;;;7.10;2.20;;;;;;;0.14;99.77;100162.42;212372;1289;138468;-82
2023/03/28 02:59:41;;;;;;;4.80;2.00;;;;;;;0.14;100.00;100168.41;211795;1291;139371;-81
2023/03/28 03:04:42;;;;;;;4.00;2.10;;;;;;;0.14;100.00;100176.38;212447;1290;139410;-82
2023/03/28 03:09:44;;;;;;;5.00;2.00;;;;;;;0.13;99.88;100171.59;212017;1288;138851;-82
2023/03/28 03:14:45;;;;;;;3.90;2.20;;;;;;;0.08;99.59;100180.02;212569;1294;97980;-82
2023/03/28 03:19:45;;;;;;;3.40;1.50;;;;;;;0.04;99.53;100192.95;212245;1289;138512;-82
2023/03/28 03:24:47;;;;;;;4.20;1.60;;;;;;;0.04;99.81;100200.36;212486;1294;138873;-81
2023/03/28 03:29:47;;;;;;;3.80;1.50;;;;;;;0.05;99.91;100209.21;211776;1294;138746;-82
2023/03/28 03:34:48;;;;;;;2.90;1.50;;;;;;;0.06;99.78;100219.56;212281;1291;140122;-81
2023/03/28 03:39:48;;;;;;;2.20;1.30;;;;;;;0.07;99.96;100228.20;211893;1293;138861;-82
2023/03/28 03:44:49;;;;;;;3.80;1.60;;;;;;;0.06;99.93;100239.36;212487;1291;97957;-82
2023/03/28 03:49:50;;;;;;;3.10;1.40;;;;;;;0.05;100.00;100246.23;212016;1294;139401;-81
2023/03/28 03:54:50;;;;;;;3.90;1.50;;;;;;;0.04;100.00;100256.54;212313;1294;138683;-82
2023/03/28 03:59:51;;;;;;;4.00;1.60;;;;;;;0.04;99.99;100262.81;211813;1292;139207;-81
2023/03/28 04:04:52;;;;;;;4.70;1.70;;;;;;;0.05;100.00;100266.98;212213;1294;138635;-81
2023/03/28 04:09:53;;;;;;;3.20;1.50;;;;;;;0.06;99.99;100277.94;211439;1294;290133;-81
2023/03/28 04:14:53;;;;;;;6.50;2.10;;;;;;;0.08;99.91;100287.05;212249;1299;138722;-81
2023/03/28 04:19:54;;;;;;;3.00;1.70;;;;;;;0.06;99.97;100299.73;211979;1294;139190;-82
2023/03/28 04:25:00;;;;;;;3.70;1.70;;;;;;;0.04;99.97;100306.35;212283;1293;138965;-82
2023/03/28 04:30:00;;;;;;;3.20;1.50;;;;;;;0.02;99.70;100319.45;211930;1289;138668;-82
2023/03/28 04:35:02;;;;;;;4.50;1.90;;;;;;;-0.01;99.20;100330.67;212454;1289;138640;-82
2023/03/28 04:40:09;;;;;;;4.40;1.80;;;;;;;-0.04;98.86;100337.05;212008;1292;139658;-82
2023/03/28 04:45:10;;;;;;;4.10;1.60;;;;;;;-0.08;99.15;100354.97;212358;1289;139152;-83
2023/03/28 04:50:11;;;;;;;4.50;1.70;;;;;;;-0.11;98.90;100359.55;212252;1289;138745;-83
2023/03/28 04:55:12;;;;;;;4.00;1.50;;;;;;;-0.17;98.74;100369.33;212503;1294;138554;-82
2023/03/28 05:00:15;;;;;;;4.90;1.60;;;;;;;-0.23;98.95;100380.83;212088;1294;139703;-82
2023/03/28 05:05:15;;;;;;;3.10;1.40;;;;;;;-0.27;98.82;100392.92;212549;1294;139598;-83
2023/03/28 05:10:16;;;;;;;3.40;1.50;;;;;;;-0.28;98.81;100401.84;212011;1292;140097;-81
2023/03/28 05:15:17;;;;;;;6.80;1.70;;;;;;;-0.30;98.65;100415.95;212531;1292;139412;-81
2023/03/28 05:20:18;;;;;;;7.90;2.00;;;;;;;-0.32;99.02;100424.14;212146;1289;138832;-81
2023/03/28 05:25:19;;;;;;;5.70;2.20;;;;;;;-0.27;99.49;100432.65;213188;1294;139725;-81
2023/03/28 05:30:19;;;;;;;7.80;2.70;;;;;;;-0.18;99.83;100437.26;212064;1289;138980;-79
2023/03/28 05:35:20;;;;;;;8.00;2.40;;;;;;;-0.11;100.00;100440.10;212346;1288;138942;-79
2023/03/28 05:40:21;;;;;;;8.30;2.60;;;;;;;-0.07;99.99;100449.04;211790;1294;139322;-79
2023/03/28 05:45:21;;;;;;;5.50;1.70;;;;;;;-0.07;99.87;100452.83;212690;1294;139129;-79
2023/03/28 05:50:23;;;;;;;6.20;1.90;;;;;;;-0.06;99.76;100463.77;212398;1292;139265;-79
2023/03/28 05:55:23;;;;;;;5.00;2.10;;;;;;;0.00;100.00;100474.02;213085;1295;139073;-79
2023/03/28 06:00:24;;;;;;;4.20;1.70;;;;;;;0.04;99.80;100476.98;212428;1289;139286;-79
2023/03/28 06:05:24;;;;;;;7.30;2.30;;;;;;;0.03;99.67;100493.36;212412;1294;139202;-79
2023/03/28 06:10:25;;;;;;;6.90;2.40;;;;;;;0.05;99.64;100493.98;211952;1294;138752;-79
2023/03/28 06:15:26;;;;;;;10.00;3.50;;;;;;;0.06;99.65;100498.13;212551;1294;138629;-80
2023/03/28 06:20:26;;;;;;;10.20;3.40;;;;;;;0.10;99.72;100505.30;212165;1293;139538;-79
2023/03/28 06:25:26;;;;;;;9.30;3.00;;;;;;;0.15;99.58;100514.86;212478;1289;138698;-80
2023/03/28 06:30:27;;;;;;;6.40;2.90;;;;;;;0.23;99.40;100525.74;211805;1294;141138;-79
2023/03/28 06:35:28;;;;;;;7.30;2.90;;;;;;;0.33;99.64;100530.89;212360;1294;138456;-80
2023/03/28 06:40:28;;;;;;;8.40;3.70;;;;;;;0.40;99.64;100537.54;212025;1294;138674;-80
2023/03/28 06:45:28;;;;;;;7.40;2.40;;;;;;;0.54;99.86;100544.77;212583;1289;138937;-80
2023/03/28 06:50:29;;;;;;;8.40;3.00;;;;;;;0.68;99.70;100552.48;212043;1294;138972;-80
2023/03/28 06:55:29;;;;;;;6.70;3.40;;;;;;;0.78;99.46;100558.14;212438;1294;138509;-79
2023/03/28 07:00:30;;;;;;;6.20;3.20;;;;;;;0.88;99.58;100564.98;211935;1294;138437;-79
2023/03/28 07:05:30;;;;;;;12.20;5.30;;;;;;;0.97;98.89;100573.27;212448;1292;139720;-78
2023/03/28 07:10:30;;;;;;;59.80;23.60;;;;;;;1.04;98.16;100588.69;212019;1294;140520;-79
2023/03/28 07:15:31;;;;;;;10.00;3.90;;;;;;;1.07;97.42;100602.38;212427;1297;139275;-80
2023/03/28 07:20:31;;;;;;;18.90;5.90;;;;;;;1.09;97.70;100609.27;212124;1294;140718;-79
2023/03/28 07:25:33;;;;;;;17.10;7.30;;;;;;;1.14;97.52;100616.13;212880;1289;138992;-79
2023/03/28 07:30:33;;;;;;;10.40;5.00;;;;;;;1.19;97.79;100616.93;211932;1293;138983;-80
2023/03/28 07:35:38;;;;;;;13.20;5.30;;;;;;;1.32;98.22;100618.43;212279;1295;140030;-79
2023/03/28 07:40:38;;;;;;;9.80;4.10;;;;;;;1.41;97.62;100619.59;212103;1294;139117;-79
2023/03/28 07:45:39;;;;;;;7.30;3.50;;;;;;;1.40;97.07;100625.73;212388;1289;138966;-79
2023/03/28 07:50:41;;;;;;;7.80;3.80;;;;;;;1.34;96.57;100631.71;211961;1290;138738;-80
2023/03/28 07:55:42;;;;;;;7.90;3.20;;;;;;;1.28;97.07;100642.07;212211;1293;138494;-80
2023/03/28 08:00:44;;;;;;;7.10;3.90;;;;;;;1.20;97.75;100655.13;212079;1294;139029;-78
2023/03/28 08:05:48;;;;;;;6.20;2.70;;;;;;;1.10;98.68;100664.05;212812;1292;139020;-78
2023/03/28 08:10:51;;;;;;;9.30;4.10;;;;;;;1.04;99.07;100669.23;211726;1294;138939;-78
2023/03/28 08:15:54;;;;;;;5.20;2.00;;;;;;;0.98;99.31;100690.69;212349;1297;138529;-77
2023/03/28 08:21:01;;;;;;;2.00;1.10;;;;;;;0.81;99.06;100700.98;213422;1293;139691;-77
2023/03/28 08:26:04;;;;;;;2.70;1.10;;;;;;;0.66;99.00;100713.19;212820;1290;104436;-78
2023/03/28 08:31:13;;;;;;;13.10;5.60;;;;;;;0.61;98.88;100715.09;217617;1291;139702;-79
2023/03/28 08:36:13;;;;;;;8.50;3.60;;;;;;;0.70;98.64;100707.34;213371;1295;139668;-77
2023/03/28 08:41:43;;;;;;;9.20;3.60;;;;;;;0.87;98.06;100718.96;212033;1295;139267;-78
2023/03/28 08:46:45;;;;;;;9.30;3.40;;;;;;;0.99;97.90;100727.38;212878;1286;139144;-78
2023/03/28 08:51:58;;;;;;;12.40;4.80;;;;;;;1.24;98.99;100735.10;213000;1289;138921;-78
2023/03/28 08:57:02;;;;;;;14.80;5.40;;;;;;;1.72;99.94;100742.19;212866;1289;141293;-80
2023/03/28 09:02:17;;;;;;;10.10;3.20;;;;;;;2.25;99.89;100751.02;212412;1286;138598;-81
2023/03/28 09:07:43;;;;;;;7.80;2.50;;;;;;;2.91;99.50;100768.41;212930;1289;138775;-82
2023/03/28 09:12:55;;;;;;;15.10;5.80;;;;;;;3.53;98.74;100767.68;214088;1285;139677;-83
2023/03/28 09:18:04;;;;;;;6.30;2.30;;;;;;;4.12;94.67;100767.11;214480;1289;138663;-82
2023/03/28 09:23:23;;;;;;;10.70;3.70;;;;;;;4.28;91.86;100772.93;213927;1287;138467;-81
2023/03/28 09:28:45;;;;;;;6.10;2.60;;;;;;;4.19;89.76;100775.67;214549;1289;138655;-82
2023/03/28 09:33:49;;;;;;;7.30;2.50;;;;;;;4.07;88.12;100785.66;214285;1289;138685;-82
2023/03/28 09:38:57;;;;;;;5.40;1.60;;;;;;;3.65;86.96;100796.57;214029;1290;138692;-81
2023/03/28 09:44:00;;;;;;;6.50;2.10;;;;;;;3.32;88.02;100795.31;214671;1286;97986;-81
2023/03/28 09:49:01;;;;;;;5.00;1.90;;;;;;;3.78;90.25;100793.86;213925;1286;138924;-82
2023/03/28 09:54:06;;;;;;;3.90;1.70;;;;;;;4.24;88.84;100793.72;214434;1290;138786;-83
2023/03/28 09:59:23;;;;;;;4.30;1.70;;;;;;;4.41;85.91;100797.44;214195;1290;138865;-82
2023/03/28 10:04:26;;;;;;;3.20;1.40;;;;;;;4.20;84.17;100813.00;214648;1285;138672;-84
2023/03/28 10:09:27;;;;;;;4.60;2.10;;;;;;;3.94;83.10;100820.21;214131;1289;138866;-83
2023/03/28 10:14:31;;;;;;;3.40;1.70;;;;;;;3.66;84.31;100828.02;214682;1289;98874;-82
2023/03/28 10:19:35;;;;;;;5.60;1.60;;;;;;;3.52;83.66;100835.55;214200;1286;138855;-82
2023/03/28 10:24:38;;;;;;;5.50;1.80;;;;;;;3.32;83.43;100836.98;214557;1289;139495;-82
2023/03/28 10:29:39;;;;;;;5.60;1.50;;;;;;;3.54;85.92;100841.98;213898;1289;139176;-82
2023/03/28 10:34:39;;;;;;;6.00;1.30;;;;;;;4.00;86.56;100838.74;214489;1285;138598;-81
2023/03/28 10:39:40;;;;;;;7.10;2.00;;;;;;;4.25;85.46;100849.88;213949;1288;138850;-81
2023/03/28 10:44:40;;;;;;;8.70;2.50;;;;;;;4.11;83.44;100858.98;214560;1289;99259;-81
2023/03/28 10:49:46;;;;;;;5.90;2.40;;;;;;;4.04;84.62;100853.93;213943;1285;138910;-82
2023/03/28 10:54:56;;;;;;;6.50;2.50;;;;;;;4.43;85.86;100857.10;214558;1288;139306;-82
2023/03/28 11:00:11;;;;;;;4.40;2.00;;;;;;;4.69;82.63;100857.88;213908;1286;139505;-80
2023/03/28 11:05:23;;;;;;;5.60;2.10;;;;;;;4.29;80.53;100873.70;214463;1285;140571;-80
2023/03/28 11:10:46;;;;;;;6.40;3.20;;;;;;;4.12;82.29;100882.46;213855;1288;139746;-79
2023/03/28 11:16:02;;;;;;;5.00;1.90;;;;;;;4.02;80.51;100904.50;214761;1287;138806;-79
2023/03/28 11:21:15;;;;;;;3.70;1.90;;;;;;;3.33;81.24;100925.95;213985;1288;138782;-79
2023/03/28 11:26:22;;;;;;;4.00;1.50;;;;;;;2.82;82.30;100933.73;212884;1286;97997;-79
2023/03/28 11:32:01;;;;;;;6.10;1.90;;;;;;;2.63;83.12;100929.47;212526;1289;138908;-80
2023/03/28 11:37:09;;;;;;;4.10;1.60;;;;;;;2.89;83.14;100923.42;212809;1292;138812;-80
2023/03/28 11:42:19;;;;;;;5.80;2.20;;;;;;;3.18;82.49;100922.97;212581;1288;138969;-81
2023/03/28 11:47:24;;;;;;;6.60;1.90;;;;;;;3.38;81.29;100929.14;212811;1289;140403;-80
2023/03/28 11:52:31;;;;;;;4.40;1.60;;;;;;;3.34;80.25;100947.36;212403;1285;138987;-80
2023/03/28 11:57:50;;;;;;;4.00;2.10;;;;;;;3.38;81.07;100952.09;215475;1284;138563;-79
2023/03/28 12:03:03;;;;;;;4.40;1.80;;;;;;;3.51;80.74;100951.98;214360;1288;138591;-82
2023/03/28 12:08:16;;;;;;;3.20;1.50;;;;;;;3.70;80.60;100953.68;214895;1285;111750;-80
2023/03/28 12:13:34;;;;;;;3.20;1.30;;;;;;;3.81;79.67;100963.44;214256;1286;139384;-82
2023/03/28 12:18:37;;;;;;;6.60;1.70;;;;;;;3.87;77.99;100967.22;214872;1285;139333;-82
2023/03/28 12:23:50;;;;;;;5.90;2.00;;;;;;;3.96;78.08;100973.63;214688;1285;138946;-81
2023/03/28 12:28:55;;;;;;;2.00;1.00;;;;;;;4.09;76.21;100982.21;214366;1285;139680;-81
2023/03/28 12:34:06;;;;;;;5.30;1.70;;;;;;;4.13;74.34;100987.86;215589;1285;138772;-81
2023/03/28 12:39:34;;;;;;;3.20;1.20;;;;;;;4.22;73.39;100986.67;214497;1288;139491;-81
2023/03/28 12:44:42;;;;;;;5.00;1.60;;;;;;;4.32;71.68;100985.00;214837;1285;103832;-82
2023/03/28 12:49:53;;;;;;;6.20;1.70;;;;;;;4.45;72.52;100993.29;214264;1288;139581;-81
2023/03/28 12:55:02;;;;;;;2.70;1.10;;;;;;;4.59;70.40;100995.39;214914;1285;138816;-81
2023/03/28 13:00:14;;;;;;;2.10;1.00;;;;;;;4.59;69.87;100995.71;214180;1285;139699;-82
2023/03/28 13:05:46;;;;;;;3.30;1.20;;;;;;;4.58;67.83;101002.35;214650;1288;139991;-82
2023/03/28 13:11:06;;;;;;;3.20;1.40;;;;;;;4.46;67.81;101008.81;214033;1285;139114;-82
2023/03/28 13:16:14;;;;;;;3.70;1.20;;;;;;;4.48;69.41;101006.44;214684;1291;138545;-81
2023/03/28 13:21:53;;;;;;;7.00;3.10;;;;;;;4.56;68.59;101001.86;214032;1289;139122;-81
2023/03/28 13:26:56;;;;;;;10.80;5.30;;;;;;;4.66;68.31;101012.60;214298;1285;104499;-82
2023/03/28 13:32:03;;;;;;;4.90;2.10;;;;;;;4.70;68.16;101009.98;214172;1291;142021;-81
2023/03/28 13:37:18;;;;;;;6.20;3.10;;;;;;;4.72;66.78;101012.82;214397;1289;139445;-81
2023/03/28 13:42:30;;;;;;;11.30;3.50;;;;;;;4.76;65.97;101021.38;214418;1288;138456;-82
2023/03/28 13:47:39;;;;;;;11.90;4.60;;;;;;;4.73;65.71;101016.73;214795;1289;138684;-81
2023/03/28 13:52:39;;;;;;;10.50;4.40;;;;;;;4.63;64.60;101014.73;214433;1285;139568;-82
2023/03/28 13:57:40;;;;;;;11.70;3.90;;;;;;;4.63;64.57;101012.70;215395;1289;138698;-84
2023/03/28 14:02:44;;;;;;;13.50;4.90;;;;;;;4.68;64.50;101013.92;214482;1285;139347;-82
2023/03/28 14:07:45;;;;;;;7.70;2.60;;;;;;;4.68;63.57;101015.36;214701;1285;138518;-82
2023/03/28 14:12:46;;;;;;;5.90;1.90;;;;;;;4.62;62.95;101015.46;213926;1288;139829;-84
2023/03/28 14:17:48;;;;;;;8.20;2.70;;;;;;;4.50;62.23;101021.64;214461;1288;138551;-82
2023/03/28 14:22:51;;;;;;;7.00;2.30;;;;;;;4.39;61.85;101017.63;214040;1285;138517;-83
2023/03/28 14:27:54;;;;;;;12.50;4.00;;;;;;;4.31;61.23;101021.16;214558;1285;140666;-83
2023/03/28 14:33:11;;;;;;;6.30;1.90;;;;;;;4.22;61.05;101022.86;214127;1289;138166;-83
2023/03/28 14:38:12;;;;;;;;;;;;;;;4.11;60.80;101026.48;214629;1289;100410;-83
2023/03/28 14:43:13;;;;;;;9.80;4.00;;;;;;;3.96;59.88;101026.36;214158;1285;124871;-84
2023/03/28 14:48:18;;;;;;;7.80;2.20;;;;;;;3.84;60.53;101033.66;214580;1285;137855;-83
2023/03/28 14:53:26;;;;;;;7.10;2.00;;;;;;;3.71;59.43;101034.00;214163;1288;138430;-84
2023/03/28 14:58:27;;;;;;;4.90;1.60;;;;;;;3.58;59.54;101041.08;214747;1288;137943;-82
2023/03/28 15:03:33;;;;;;;4.10;2.20;;;;;;;3.49;59.78;101046.96;214094;1286;138332;-84
2023/03/28 15:08:36;;;;;;;3.70;1.60;;;;;;;3.35;58.56;101047.55;215410;1285;97931;-83
2023/03/28 15:13:39;;;;;;;4.80;2.40;;;;;;;3.24;58.62;101049.48;212511;1285;138100;-82
2023/03/28 15:18:45;;;;;;;4.60;2.70;;;;;;;3.19;58.52;101053.20;213088;1287;137772;-82
2023/03/28 15:23:52;;;;;;;4.90;1.90;;;;;;;3.13;58.26;101058.48;212694;1285;137888;-81
2023/03/28 15:28:55;;;;;;;3.20;1.40;;;;;;;3.09;58.68;101059.52;212542;1286;138232;-80
2023/03/28 15:33:57;;;;;;;8.90;1.90;;;;;;;3.05;59.17;101067.68;213074;1291;138133;-83
2023/03/28 15:39:00;;;;;;;2.60;1.10;;;;;;;2.99;58.14;101072.52;212711;1290;139119;-80
2023/03/28 15:44:50;;;;;;;3.40;1.40;;;;;;;2.93;58.86;101068.44;214579;1285;137409;-80
2023/03/28 15:49:57;;;;;;;4.20;1.70;;;;;;;2.89;59.12;101072.94;212853;1285;138331;-81
2023/03/28 15:55:00;;;;;;;4.30;1.80;;;;;;;2.87;60.60;101079.50;214976;1289;138297;-81
2023/03/28 16:00:01;;;;;;;4.50;1.40;;;;;;;2.84;60.99;101086.86;214790;1285;139002;-82
2023/03/28 16:05:13;;;;;;;6.80;1.80;;;;;;;2.80;61.11;101088.27;215228;1288;137804;-83
2023/03/28 16:10:19;;;;;;;5.90;2.00;;;;;;;2.76;61.13;101095.13;214422;1285;282096;-81
2023/03/28 16:15:20;;;;;;;5.60;1.90;;;;;;;2.71;61.80;101098.39;214989;1286;138497;-82
2023/03/28 16:20:24;;;;;;;10.90;4.50;;;;;;;2.65;61.56;101096.52;214549;1288;138808;-82
2023/03/28 16:25:26;;;;;;;6.00;2.20;;;;;;;2.60;61.79;101100.25;214803;1285;138356;-82
2023/03/28 16:30:34;;;;;;;6.50;2.30;;;;;;;2.55;62.51;101115.52;214299;1285;139283;-81
2023/03/28 16:35:35;;;;;;;5.30;2.00;;;;;;;2.50;62.72;101115.90;214755;1288;138031;-80
2023/03/28 16:40:35;;;;;;;5.20;1.80;;;;;;;2.43;62.78;101122.09;214277;1289;139727;-82
2023/03/28 16:45:37;;;;;;;4.90;1.40;;;;;;;2.36;62.80;101127.20;214739;1289;138243;-82
2023/03/28 16:50:37;;;;;;;5.20;1.90;;;;;;;2.29;61.96;101128.29;214221;1286;138722;-81
2023/03/28 16:55:37;;;;;;;5.70;1.60;;;;;;;2.21;61.81;101131.12;214804;1288;137992;-81
2023/03/28 17:00:39;;;;;;;11.20;2.30;;;;;;;2.14;62.58;101136.53;213343;1290;137982;-81
2023/03/28 17:05:40;;;;;;;10.70;2.60;;;;;;;2.05;62.60;101144.16;212991;1291;138026;-81
2023/03/28 17:10:42;;;;;;;11.20;3.10;;;;;;;1.96;62.99;101143.41;212761;1290;138528;-80
2023/03/28 17:15:42;;;;;;;9.40;3.80;;;;;;;1.87;63.69;101147.90;213286;1291;137928;-80
2023/03/28 17:20:43;;;;;;;9.70;4.30;;;;;;;1.79;64.02;101151.98;214978;1288;138247;-82
2023/03/28 17:25:43;;;;;;;9.50;3.20;;;;;;;1.69;64.26;101157.59;214898;1285;137969;-81
2023/03/28 17:30:43;;;;;;;9.90;3.10;;;;;;;1.59;65.40;101160.16;214152;1285;138140;-81
2023/03/28 17:35:44;;;;;;;8.10;2.40;;;;;;;1.51;65.68;101162.91;214688;1285;139286;-81
2023/03/28 17:40:46;;;;;;;6.60;2.30;;;;;;;1.40;66.49;101173.04;214250;1286;138063;-81
2023/03/28 17:45:52;;;;;;;9.90;2.40;;;;;;;1.29;67.24;101180.77;214604;1285;138210;-82
2023/03/28 17:50:54;;;;;;;9.50;2.80;;;;;;;1.19;68.04;101187.52;214140;1285;138853;-82
2023/03/28 17:55:56;;;;;;;9.10;3.00;;;;;;;1.07;68.95;101192.96;215184;1285;137646;-81
2023/03/28 18:00:56;;;;;;;15.00;5.00;;;;;;;0.96;69.65;101190.27;214192;1285;138952;-81
2023/03/28 18:05:59;;;;;;;13.70;5.10;;;;;;;0.82;68.92;101200.08;214677;1286;138508;-82
2023/03/28 18:11:01;;;;;;;11.20;3.90;;;;;;;0.68;69.72;101205.10;214246;1285;138918;-82
2023/03/28 18:16:03;;;;;;;11.50;4.00;;;;;;;0.56;70.00;101207.33;214579;1289;139623;-82
2023/03/28 18:21:06;;;;;;;12.90;4.60;;;;;;;0.43;70.36;101209.40;214004;1289;139293;-81
2023/03/28 18:26:07;;;;;;;20.50;8.50;;;;;;;0.27;70.01;101213.78;214840;1285;98063;-81
2023/03/28 18:31:11;;;;;;;16.00;7.30;;;;;;;0.11;70.77;101217.28;213966;1286;138782;-81
2023/03/28 18:36:12;;;;;;;27.20;12.40;;;;;;;-0.02;72.11;101220.27;214648;1286;139543;-82
2023/03/28 18:41:13;;;;;;;29.60;13.30;;;;;;;-0.16;72.64;101223.06;213369;1285;139364;-81
2023/03/28 18:46:13;;;;;;;27.20;13.10;;;;;;;-0.27;72.86;101226.30;212979;1285;140365;-81
2023/03/28 18:51:14;;;;;;;33.20;17.10;;;;;;;-0.41;72.53;101225.96;212468;1286;140324;-80
2023/03/28 18:56:15;;;;;;;18.90;8.60;;;;;;;-0.55;73.13;101229.70;213205;1289;98632;-80
2023/03/28 19:01:17;;;;;;;19.70;8.20;;;;;;;-0.68;73.13;101225.67;212727;1290;139380;-80
2023/03/28 19:06:17;;;;;;;18.10;7.40;;;;;;;-0.80;73.34;101227.55;213231;1285;139134;-80
2023/03/28 19:11:18;;;;;;;23.40;8.90;;;;;;;-0.93;73.21;101226.23;212503;1290;139871;-81
2023/03/28 19:16:19;;;;;;;35.00;13.20;;;;;;;-1.06;73.85;101223.70;212888;1289;139366;-79
2023/03/28 19:21:20;;;;;;;64.50;23.50;;;;;;;-1.18;74.32;101219.30;212493;1285;139489;-81
2023/03/28 19:26:21;;;;;;;159.10;50.60;;;;;;;-1.25;75.70;101217.13;213072;1285;98987;-80
2023/03/28 19:31:23;;;;;;;123.60;45.10;;;;;;;-1.33;74.86;101219.51;212583;1289;139622;-80
2023/03/28 19:36:23;;;;;;;74.30;26.20;;;;;;;-1.44;75.66;101216.75;213161;1286;139570;-80
2023/03/28 19:41:25;;;;;;;55.10;22.80;;;;;;;-1.53;76.01;101219.08;213124;1285;139533;-81
2023/03/28 19:46:31;;;;;;;71.20;26.50;;;;;;;-1.66;76.55;101217.14;212986;1288;139241;-80
2023/03/28 19:51:32;;;;;;;64.70;27.80;;;;;;;-1.79;77.17;101223.45;212401;1285;139451;-81
2023/03/28 19:56:33;;;;;;;66.60;26.70;;;;;;;-1.87;77.94;101224.73;213116;1289;98062;-80
2023/03/28 20:01:33;;;;;;;57.10;24.70;;;;;;;-1.95;77.42;101226.65;212489;1290;140361;-79
2023/03/28 20:06:34;;;;;;;56.70;22.50;;;;;;;-2.05;78.12;101223.23;213964;1285;139282;-80
2023/03/28 20:11:36;;;;;;;56.50;23.10;;;;;;;-2.14;78.18;101222.29;212478;1286;140641;-79
2023/03/28 20:16:37;;;;;;;59.30;22.30;;;;;;;-2.22;78.58;101223.60;213365;1285;139234;-79
2023/03/28 20:21:37;;;;;;;56.00;22.90;;;;;;;-2.31;78.73;101219.09;212656;1287;139527;-79
2023/03/28 20:26:38;;;;;;;54.10;21.00;;;;;;;-2.38;79.30;101215.65;213022;1285;98957;-80
2023/03/28 20:31:39;;;;;;;51.30;21.50;;;;;;;-2.46;79.64;101214.21;212440;1286;139374;-80
2023/03/28 20:36:41;;;;;;;53.50;21.40;;;;;;;-2.52;80.36;101214.98;212856;1291;140596;-79
2023/03/28 20:41:42;;;;;;;55.80;21.60;;;;;;;-2.63;80.61;101217.63;212507;1288;139929;-79
2023/03/28 20:46:44;;;;;;;58.20;24.00;;;;;;;-2.72;81.21;101220.17;213010;1288;139471;-79
2023/03/28 20:51:45;;;;;;;68.20;23.80;;;;;;;-2.77;81.18;101215.38;212599;1285;139879;-79
2023/03/28 20:56:46;;;;;;;65.40;25.00;;;;;;;-2.83;81.65;101219.64;213113;1289;98656;-79
2023/03/28 21:01:46;;;;;;;77.60;24.80;;;;;;;-2.90;81.83;101225.45;212520;1288;139238;-79
2023/03/28 21:06:48;;;;;;;78.50;29.10;;;;;;;-2.98;82.24;101228.35;213162;1291;139406;-79
2023/03/28 21:11:49;;;;;;;114.10;38.40;;;;;;;-3.11;82.26;101225.76;212742;1288;139670;-79
2023/03/28 21:16:50;;;;;;;147.70;48.70;;;;;;;-3.18;82.69;101233.45;213287;1285;139506;-79
2023/03/28 21:21:51;;;;;;;156.30;48.00;;;;;;;-3.23;82.98;101229.56;212672;1285;140340;-80
2023/03/28 21:26:51;;;;;;;132.40;44.10;;;;;;;-3.27;83.17;101228.91;213362;1285;98540;-80
2023/03/28 21:31:52;;;;;;;158.10;53.60;;;;;;;-3.32;83.79;101224.27;212837;1288;139743;-78
2023/03/28 21:36:52;;;;;;;154.00;56.10;;;;;;;-3.36;84.03;101225.34;213535;1291;139993;-79
2023/03/28 21:41:53;;;;;;;119.40;45.10;;;;;;;-3.42;84.37;101222.84;212742;1291;139991;-79
2023/03/28 21:46:53;;;;;;;142.40;50.30;;;;;;;-3.48;84.06;101219.86;213223;1289;139390;-79
2023/03/28 21:51:54;;;;;;;140.30;52.80;;;;;;;-3.51;84.47;101222.93;212720;1289;139971;-78
2023/03/28 21:56:55;;;;;;;124.80;44.30;;;;;;;-3.56;84.29;101225.02;213059;1290;98895;-79
2023/03/28 22:01:55;;;;;;;135.60;48.80;;;;;;;-3.64;84.72;101223.86;212423;1291;139606;-79
2023/03/28 22:06:55;;;;;;;134.60;50.90;;;;;;;-3.68;85.26;101226.65;212915;1289;139630;-79
2023/03/28 22:11:56;;;;;;;162.40;51.70;;;;;;;-3.72;85.60;101232.13;212314;1285;140207;-79
2023/03/28 22:16:57;;;;;;;153.30;55.80;;;;;;;-3.79;85.42;101234.51;212913;1285;139839;-79
2023/03/28 22:21:59;;;;;;;170.30;59.70;;;;;;;-3.92;85.73;101241.93;212337;1285;141926;-79
2023/03/28 22:27:00;;;;;;;193.90;66.60;;;;;;;-3.95;85.86;101243.58;212909;1291;98051;-79
2023/03/28 22:32:01;;;;;;;209.80;69.70;;;;;;;-4.00;86.07;101239.47;212370;1291;139630;-79
2023/03/28 22:37:01;;;;;;;259.40;88.60;;;;;;;-4.03;86.20;101233.00;212835;1291;140281;-79
2023/03/28 22:42:01;;;;;;;302.80;101.70;;;;;;;-4.09;86.14;101233.99;212433;1291;140508;-80
2023/03/28 22:47:02;;;;;;;283.40;89.00;;;;;;;-4.12;85.93;101235.48;213005;1288;140005;-79
2023/03/28 22:52:04;;;;;;;227.20;75.40;;;;;;;-4.17;86.26;101234.02;212340;1288;140179;-79
2023/03/28 22:57:05;;;;;;;197.60;68.60;;;;;;;-4.19;86.53;101235.73;212996;1289;99252;-79
2023/03/28 23:02:06;;;;;;;196.80;66.40;;;;;;;-4.23;86.87;101229.20;212436;1291;139657;-80
2023/03/28 23:07:07;;;;;;;182.40;62.20;;;;;;;-4.25;86.84;101232.17;212978;1291;140091;-80
2023/03/28 23:12:09;;;;;;;156.30;56.40;;;;;;;-4.26;86.92;101230.35;212390;1291;139543;-80